createdAt,value
2019-04-23T00:00:51.938Z,11.6
2019-04-23T00:03:38.528Z,11.4
2019-04-23T00:09:46.177Z,11.4
2019-04-23T00:15:40.041Z,11.4
2019-04-23T00:18:36.604Z,11.4
2019-04-23T00:21:26.362Z,11.3
2019-04-23T00:24:27.872Z,11.3
2019-04-23T00:27:22.185Z,11.3
2019-04-23T00:30:09.303Z,11.3
2019-04-23T00:32:55.236Z,11.4
2019-04-23T00:35:54.627Z,11.3
2019-04-23T00:38:49.373Z,11.3
2019-04-23T00:41:49.197Z,11.3
2019-04-23T00:44:45.747Z,11.3
2019-04-23T00:47:49.428Z,11.3
2019-04-23T00:53:21.886Z,11.3
2019-04-23T00:56:44.323Z,11.2
2019-04-23T00:59:20.510Z,11
2019-04-23T01:02:16.391Z,10.9
2019-04-23T01:05:16.083Z,10.8
2019-04-23T01:08:04.910Z,10.8
2019-04-23T01:14:13.070Z,10.6
2019-04-23T01:19:43.053Z,10.4
2019-04-23T01:21:51.891Z,10.4
2019-04-23T01:24:50.741Z,10.4
2019-04-23T01:28:41.682Z,10.5
2019-04-23T01:31:32.948Z,10.5
2019-04-23T01:34:31.028Z,10.4
2019-04-23T01:37:25.267Z,10.4
2019-04-23T01:40:18.610Z,10.4
2019-04-23T01:43:15.914Z,10.4
2019-04-23T01:46:00.819Z,10.4
2019-04-23T01:49:05.570Z,10.4
2019-04-23T01:52:07.281Z,10.4
2019-04-23T01:54:51.782Z,10.3
2019-04-23T01:58:05.627Z,10.4
2019-04-23T02:00:46.699Z,10.4
2019-04-23T02:03:40.944Z,10.6
2019-04-23T02:06:38.459Z,10.8
2019-04-23T02:09:41.618Z,11.1
2019-04-23T02:12:32.802Z,11.4
2019-04-23T02:15:22.783Z,11.6
2019-04-23T02:18:30.330Z,11.7
2019-04-23T02:21:09.900Z,11.7
2019-04-23T02:24:24.207Z,11.8
2019-04-23T02:26:55.343Z,11.9
2019-04-23T02:30:25.855Z,12.1
2019-04-23T02:33:28.519Z,12.1
2019-04-23T02:36:10.795Z,12.2
2019-04-23T02:47:52.326Z,12.5
2019-04-23T02:50:42.259Z,12.5
2019-04-23T02:56:46.189Z,12.7
2019-04-23T02:59:39.619Z,12.7
2019-04-23T03:02:34.634Z,12.8
2019-04-23T03:05:19.641Z,12.8
2019-04-23T03:08:16.477Z,13
2019-04-23T03:13:53.312Z,13.2
2019-04-23T03:19:45.198Z,13.3
2019-04-23T03:22:44.145Z,13.3
2019-04-23T03:25:44.535Z,13.4
2019-04-23T03:27:55.172Z,13.4
2019-04-23T03:37:55.409Z,13.5
2019-04-23T03:43:24.928Z,13.6
2019-04-23T03:48:50.673Z,13.7
2019-04-23T03:55:03.050Z,13.8
2019-04-23T04:00:55.827Z,13.7
2019-04-23T04:04:12.157Z,13.8
2019-04-23T04:06:58.799Z,13.8
2019-04-23T04:09:38.358Z,13.9
2019-04-23T04:12:20.832Z,14
2019-04-23T04:15:48.135Z,14
2019-04-23T04:21:07.052Z,14
2019-04-23T04:24:21.242Z,14
2019-04-23T04:26:57.710Z,14
2019-04-23T04:29:51.608Z,14
2019-04-23T04:33:04.739Z,14
2019-04-23T04:35:46.434Z,14
2019-04-23T04:38:54.092Z,14
2019-04-23T04:41:39.667Z,14.1
2019-04-23T04:45:12.050Z,14.1
2019-04-23T04:47:35.222Z,14.1
2019-04-23T04:50:41.369Z,14.2
2019-04-23T04:59:08.391Z,14.3
2019-04-23T05:02:52.332Z,14.4
2019-04-23T05:05:19.810Z,14.2
2019-04-23T05:07:47.209Z,14.1
2019-04-23T05:10:51.102Z,14.1
2019-04-23T05:13:44.402Z,14
2019-04-23T05:16:42.998Z,14
2019-04-23T05:19:56.081Z,13.9
2019-04-23T05:22:38.272Z,14
2019-04-23T05:25:16.730Z,14.1
2019-04-23T05:28:38.234Z,14.3
2019-04-23T05:31:05.560Z,14.4
2019-04-23T05:34:02.414Z,14.4
2019-04-23T05:36:59.699Z,14.5
2019-04-23T05:39:53.313Z,14.6
2019-04-23T05:42:51.855Z,14.7
2019-04-23T05:45:46.340Z,14.7
2019-04-23T05:48:45.410Z,14.7
2019-04-23T05:51:50.220Z,14.9
2019-04-23T05:57:25.151Z,14.9
2019-04-23T06:00:23.443Z,15
2019-04-23T06:03:37.889Z,15
2019-04-23T06:06:19.942Z,15.1
2019-04-23T06:09:18.708Z,15.1
2019-04-23T06:12:13.190Z,15.1
2019-04-23T06:14:57.174Z,15.2
2019-04-23T06:17:53.763Z,15.2
2019-04-23T06:23:57.763Z,15.3
2019-04-23T06:29:42.770Z,15.4
2019-04-23T06:32:42.593Z,15.3
2019-04-23T06:35:13.449Z,15.3
2019-04-23T06:38:51.810Z,15.3
2019-04-23T06:43:49.520Z,15.3
2019-04-23T06:49:58.017Z,15.3
2019-04-23T06:53:03.731Z,15.4
2019-04-23T06:56:03.503Z,15.3
2019-04-23T06:58:58.612Z,15.4
2019-04-23T07:01:52.666Z,15.4
2019-04-23T07:04:56.578Z,15.4
2019-04-23T07:08:02.558Z,15.3
2019-04-23T07:10:31.456Z,15.4
2019-04-23T07:13:39.844Z,15.4
2019-04-23T07:16:38.258Z,15.4
2019-04-23T07:19:30.081Z,15.5
2019-04-23T07:22:15.852Z,15.6
2019-04-23T07:25:12.686Z,15.6
2019-04-23T07:28:12.765Z,15.6
2019-04-23T07:31:07.184Z,15.8
2019-04-23T07:37:04.628Z,15.9
2019-04-23T07:42:41.401Z,16.2
2019-04-23T07:45:09.217Z,16.3
2019-04-23T07:48:33.949Z,16.3
2019-04-23T07:51:35.472Z,16.4
2019-04-23T07:54:38.597Z,16.5
2019-04-23T07:57:33.755Z,16.5
2019-04-23T08:00:17.964Z,16.7
2019-04-23T08:03:16.961Z,16.8
2019-04-23T08:06:11.860Z,16.8
2019-04-23T08:08:56.011Z,16.8
2019-04-23T08:12:02.393Z,16.9
2019-04-23T08:14:59.549Z,16.9
2019-04-23T08:17:50.024Z,17
2019-04-23T08:20:41.850Z,16.9
2019-04-23T08:23:48.538Z,17
2019-04-23T08:29:30.131Z,17.4
2019-04-23T08:32:26.790Z,17.7
2019-04-23T08:35:19.318Z,18
2019-04-23T08:38:35.658Z,18.2
2019-04-23T08:44:27.117Z,18.3
2019-04-23T08:47:16.879Z,18.4
2019-04-23T08:50:21.391Z,18.4
2019-04-23T08:58:53.342Z,18.7
2019-04-23T09:01:55.310Z,19.1
2019-04-23T09:04:53.599Z,19.3
2019-04-23T09:07:34.918Z,19.4
2019-04-23T09:10:40.773Z,19.5
2019-04-23T09:16:34.161Z,19.6
2019-04-23T09:19:30.333Z,19.6
2019-04-23T09:22:27.821Z,19.5
2019-04-23T09:25:19.870Z,19.5
2019-04-23T09:28:33.025Z,19.5
2019-04-23T09:31:02.627Z,19.7
2019-04-23T09:34:04.711Z,19.6
2019-04-23T09:37:09.884Z,19.3
2019-04-23T09:39:58.487Z,19.7
2019-04-23T09:43:00.285Z,19.7
2019-04-23T09:45:55.774Z,19.4
2019-04-23T09:48:57.789Z,19.4
2019-04-23T09:51:35.622Z,19.3
2019-04-23T09:54:39.650Z,19.2
2019-04-23T09:57:15.728Z,19.3
2019-04-23T10:00:36.002Z,19.5
2019-04-23T10:02:59.484Z,19.6
2019-04-23T10:05:39.529Z,19.6
2019-04-23T10:08:29.550Z,19.6
2019-04-23T10:11:11.265Z,19.7
2019-04-23T10:14:06.533Z,19.6
2019-04-23T10:17:03.976Z,19.6
2019-04-23T10:19:58.209Z,19.7
2019-04-23T10:22:54.450Z,19.8
2019-04-23T10:25:49.875Z,19.9
2019-04-23T10:28:44.668Z,19.9
2019-04-23T10:31:41.934Z,19.9
2019-04-23T10:34:56.185Z,19.8
2019-04-23T10:37:50.839Z,20
2019-04-23T10:40:38.649Z,20.1
2019-04-23T10:43:24.832Z,20.1
2019-04-23T10:47:11.337Z,20.3
2019-04-23T10:50:16.576Z,20.1
2019-04-23T10:53:36.050Z,20.3
2019-04-23T10:56:17.871Z,20.2
2019-04-23T10:59:03.012Z,20.1
2019-04-23T11:02:23.462Z,20.1
2019-04-23T11:05:15.527Z,20
2019-04-23T11:07:53.111Z,19.9
2019-04-23T11:10:43.826Z,20
2019-04-23T11:13:44.749Z,20.1
2019-04-23T11:17:01.990Z,20
2019-04-23T11:19:39.693Z,20
2019-04-23T11:22:47.533Z,20
2019-04-23T11:28:32.354Z,19.8
2019-04-23T11:31:11.693Z,19.8
2019-04-23T11:34:33.461Z,19.8
2019-04-23T11:37:11.024Z,20
2019-04-23T11:40:15.182Z,20
2019-04-23T11:46:14.349Z,19.8
2019-04-23T11:48:59.221Z,19.8
2019-04-23T11:51:52.224Z,19.7
2019-04-23T11:54:52.671Z,19.7
2019-04-23T12:00:48.816Z,19.6
2019-04-23T12:03:26.283Z,19.6
2019-04-23T12:06:29.362Z,19.6
2019-04-23T12:09:23.762Z,19.5
2019-04-23T12:15:31.666Z,19.6
2019-04-23T12:21:03.567Z,19.7
2019-04-23T12:24:26.886Z,19.7
2019-04-23T12:27:13.367Z,19.8
2019-04-23T12:29:59.649Z,19.8
2019-04-23T12:33:18.542Z,20
2019-04-23T12:35:49.286Z,20
2019-04-23T12:38:38.257Z,20
2019-04-23T12:41:43.147Z,20
2019-04-23T12:44:38.366Z,20
2019-04-23T12:56:29.995Z,20.3
2019-04-23T12:58:54.568Z,20.2
2019-04-23T13:02:24.692Z,20.2
2019-04-23T13:05:14.279Z,20.2
2019-04-23T13:08:07.404Z,20.1
2019-04-23T13:11:13.270Z,20.2
2019-04-23T13:13:58.069Z,20.2
2019-04-23T13:16:15.939Z,20.2
2019-04-23T13:22:47.252Z,20.3
2019-04-23T13:25:39.638Z,20.3
2019-04-23T13:28:31.883Z,20.2
2019-04-23T13:31:28.732Z,20.3
2019-04-23T13:34:22.333Z,20.3
2019-04-23T13:37:28.960Z,20.4
2019-04-23T13:40:22.573Z,20.2
2019-04-23T13:43:18.928Z,20.2
2019-04-23T13:46:14.729Z,20.3
2019-04-23T13:48:46.344Z,20.4
2019-04-23T13:52:04.509Z,20.4
2019-04-23T13:55:07.403Z,20.5
2019-04-23T14:01:00.337Z,20.5
2019-04-23T14:03:44.531Z,20.5
2019-04-23T14:09:35.601Z,20.4
2019-04-23T14:12:31.648Z,20.4
2019-04-23T14:15:53.283Z,20.3
2019-04-23T14:21:18.744Z,20.6
2019-04-23T14:24:36.499Z,20.5
2019-04-23T14:30:19.926Z,20.3
2019-04-23T14:32:59.234Z,20.3
2019-04-23T14:35:58.106Z,20.2
2019-04-23T14:38:56.422Z,20.4
2019-04-23T14:41:42.199Z,20.4
2019-04-23T14:44:49.297Z,20.3
2019-04-23T14:48:03.775Z,20.3
2019-04-23T14:50:56.698Z,20.3
2019-04-23T14:53:37.013Z,20.2
2019-04-23T14:56:33.986Z,20.4
2019-04-23T14:59:18.253Z,20.3
2019-04-23T15:02:19.297Z,20.4
2019-04-23T15:05:16.958Z,20.5
2019-04-23T15:08:13.305Z,20.5
2019-04-23T15:11:11.030Z,20.4
2019-04-23T15:14:22.945Z,20.4
2019-04-23T15:17:05.340Z,20.3
2019-04-23T15:20:02.698Z,20.4
2019-04-23T15:25:59.929Z,20.3
2019-04-23T15:28:13.948Z,20.2
2019-04-23T15:34:22.993Z,20.1
2019-04-23T15:40:31.389Z,20.3
2019-04-23T15:43:21.911Z,20.2
2019-04-23T15:46:25.038Z,20.3
2019-04-23T15:49:19.408Z,20.4
2019-04-23T15:52:18.580Z,20.5
2019-04-23T15:55:04.938Z,20.5
2019-04-23T15:58:12.808Z,20.4
2019-04-23T16:00:46.548Z,20.5
2019-04-23T16:02:49.118Z,20.3
2019-04-23T16:05:46.637Z,20.2
2019-04-23T16:12:56.211Z,20.2
2019-04-23T16:15:34.798Z,20.3
2019-04-23T16:18:49.340Z,20.2
2019-04-23T16:21:35.628Z,20.2
2019-04-23T16:24:20.129Z,20.1
2019-04-23T16:27:14.775Z,20
2019-04-23T16:30:13.710Z,19.9
2019-04-23T16:33:10.942Z,19.9
2019-04-23T16:36:10.585Z,19.8
2019-04-23T16:39:10.120Z,19.8
2019-04-23T16:42:01.649Z,19.7
2019-04-23T16:45:05.824Z,19.6
2019-04-23T16:47:45.097Z,19.6
2019-04-23T16:51:00.357Z,19.5
2019-04-23T16:53:28.241Z,19.3
2019-04-23T16:56:41.456Z,19.2
2019-04-23T16:59:33.782Z,19.3
2019-04-23T17:02:31.609Z,19.2
2019-04-23T17:05:23.003Z,19.2
2019-04-23T17:08:42.032Z,19
2019-04-23T17:11:17.394Z,19
2019-04-23T17:14:07.969Z,19
2019-04-23T17:16:58.010Z,18.9
2019-04-23T17:23:03.434Z,18.8
2019-04-23T17:28:42.355Z,18.6
2019-04-23T17:34:34.222Z,18.5
2019-04-23T17:37:32.020Z,18.4
2019-04-23T17:40:37.273Z,18.3
2019-04-23T17:43:10.975Z,18.2
2019-04-23T17:46:21.519Z,18.1
2019-04-23T17:49:21.673Z,18.1
2019-04-23T17:52:34.423Z,17.9
2019-04-23T17:55:09.995Z,17.9
2019-04-23T17:58:14.040Z,17.9
2019-04-23T18:07:03.026Z,17.8
2019-04-23T18:12:55.489Z,17.7
2019-04-23T18:15:23.882Z,17.6
2019-04-23T18:18:37.946Z,17.6
2019-04-23T18:21:02.893Z,17.6
2019-04-23T18:24:40.137Z,17.5
2019-04-23T18:27:23.158Z,17.3
2019-04-23T18:30:25.563Z,17.3
2019-04-23T18:33:54.159Z,17.2
2019-04-23T18:35:56.423Z,17.2
2019-04-23T18:39:11.798Z,17.2
2019-04-23T18:41:59.338Z,17.1
2019-04-23T18:45:02.585Z,17.1
2019-04-23T18:47:54.222Z,17.1
2019-04-23T18:54:04.375Z,17.1
2019-04-23T18:57:08.914Z,17
2019-04-23T19:00:04.705Z,17
2019-04-23T19:02:42.517Z,17
2019-04-23T19:05:22.007Z,16.9
2019-04-23T19:08:52.815Z,16.9
2019-04-23T19:11:20.716Z,16.9
2019-04-23T19:14:16.438Z,16.8
2019-04-23T19:17:41.091Z,16.8
2019-04-23T19:23:05.923Z,16.8
2019-04-23T19:25:49.475Z,16.8
2019-04-23T19:29:19.912Z,16.9
2019-04-23T19:31:56.567Z,16.8
2019-04-23T19:34:38.698Z,16.7
2019-04-23T19:40:37.338Z,16.7
2019-04-23T19:43:32.618Z,16.7
2019-04-23T19:46:48.773Z,16.7
2019-04-23T19:48:57.037Z,16.6
2019-04-23T19:52:20.099Z,16.6
2019-04-23T19:55:15.832Z,16.5
2019-04-23T19:58:29.788Z,16.5
2019-04-23T20:01:19.460Z,16.5
2019-04-23T20:03:52.122Z,16.5
2019-04-23T20:07:28.327Z,16.4
2019-04-23T20:12:31.650Z,16.3
2019-04-23T20:15:47.432Z,16.3
2019-04-23T20:18:45.895Z,16.3
2019-04-23T20:21:29.763Z,16.3
2019-04-23T20:24:26.621Z,16.2
2019-04-23T20:27:33.453Z,16.1
2019-04-23T20:33:40.025Z,16
2019-04-23T20:36:19.558Z,15.9
2019-04-23T20:39:05.959Z,15.8
2019-04-23T20:42:14.850Z,15.9
2019-04-23T20:45:26.854Z,15.9
2019-04-23T20:48:04.546Z,15.8
2019-04-23T20:50:38.633Z,15.8
2019-04-23T20:53:46.213Z,15.8
2019-04-23T20:56:49.309Z,15.8
2019-04-23T20:59:40.197Z,15.7
2019-04-23T21:05:22.549Z,15.7
2019-04-23T21:08:13.215Z,15.7
2019-04-23T21:11:32.331Z,15.7
2019-04-23T21:14:35.583Z,15.7
2019-04-23T21:17:03.681Z,15.7
2019-04-23T21:25:56.876Z,15.7
2019-04-23T21:28:43.568Z,15.7
2019-04-23T21:31:39.397Z,15.6
2019-04-23T21:34:55.508Z,15.6
2019-04-23T21:37:30.099Z,15.6
2019-04-23T21:43:26.996Z,15.6
2019-04-23T21:46:50.797Z,15.6
2019-04-23T21:49:53.490Z,15.6
2019-04-23T21:52:22.609Z,15.7
2019-04-23T21:55:08.998Z,15.7
2019-04-23T21:57:33.588Z,15.7
2019-04-23T22:01:17.998Z,15.7
2019-04-23T22:06:52.576Z,15.6
2019-04-23T22:12:46.090Z,15.6
2019-04-23T22:15:29.888Z,15.7
2019-04-23T22:18:44.005Z,15.6
2019-04-23T22:21:39.590Z,15.6
2019-04-23T22:24:23.684Z,15.6
2019-04-23T22:27:09.402Z,15.6
2019-04-23T22:30:21.215Z,15.5
2019-04-23T22:39:02.895Z,15.2
2019-04-23T22:45:03.927Z,15.1
2019-04-23T22:47:47.480Z,15.1
2019-04-23T22:50:56.285Z,15.1
2019-04-23T22:53:35.169Z,15
2019-04-23T22:56:43.746Z,15
2019-04-23T23:02:44.100Z,15
2019-04-23T23:08:26.746Z,14.9
2019-04-23T23:14:19.938Z,14.9
2019-04-23T23:17:11.170Z,15
2019-04-23T23:22:56.866Z,14.9
2019-04-23T23:25:53.487Z,14.9
2019-04-23T23:29:05.528Z,14.9
2019-04-23T23:31:41.985Z,14.8
2019-04-23T23:34:45.484Z,14.7
2019-04-23T23:37:33.003Z,14.6
2019-04-23T23:40:32.808Z,14.4
2019-04-23T23:43:52.791Z,14.3
2019-04-23T23:49:10.883Z,14.4
2019-04-23T23:52:17.714Z,14.4
2019-04-23T23:55:18.260Z,14.2
2019-04-23T23:58:06.206Z,14.3
